createdAt,value
2022-11-28T00:02:02.155Z,82.61
2022-11-28T00:04:32.278Z,82.47
2022-11-28T00:07:01.706Z,82.48
2022-11-28T00:09:30.718Z,82.45
2022-11-28T00:12:00.090Z,82.37
2022-11-28T00:14:29.159Z,82.44
2022-11-28T00:16:58.290Z,82.52
2022-11-28T00:19:27.064Z,82.26
2022-11-28T00:21:57.667Z,82.19
2022-11-28T00:24:27.429Z,82.09
2022-11-28T00:26:56.068Z,82.22
2022-11-28T00:29:25.017Z,82.38
2022-11-28T00:31:53.850Z,82.40
2022-11-28T00:34:22.691Z,82.41
2022-11-28T00:36:51.538Z,82.37
2022-11-28T00:39:21.893Z,82.27
2022-11-28T00:41:56.620Z,82.32
2022-11-28T00:44:25.846Z,82.31
2022-11-28T00:46:58.130Z,82.45
2022-11-28T00:49:27.023Z,82.48
2022-11-28T00:51:57.647Z,82.30
2022-11-28T00:54:29.331Z,82.29
2022-11-28T00:56:58.668Z,82.53
2022-11-28T00:59:30.850Z,82.40
2022-11-28T01:02:00.043Z,82.40
2022-11-28T01:04:30.084Z,82.41
2022-11-28T01:06:59.716Z,82.41
2022-11-28T01:09:36.556Z,82.33
2022-11-28T01:12:09.425Z,82.47
2022-11-28T01:14:44.132Z,82.67
2022-11-28T01:17:13.691Z,82.80
2022-11-28T01:19:42.437Z,82.83
2022-11-28T01:22:13.305Z,82.78
2022-11-28T01:24:43.445Z,82.72
2022-11-28T01:27:16.998Z,82.62
2022-11-28T01:29:49.453Z,82.52
2022-11-28T01:32:18.856Z,82.76
2022-11-28T01:34:49.356Z,82.76
2022-11-28T01:37:18.096Z,82.77
2022-11-28T01:39:56.944Z,82.75
2022-11-28T01:42:25.891Z,82.77
2022-11-28T01:45:16.614Z,82.84
2022-11-28T01:47:46.716Z,82.67
2022-11-28T01:50:16.552Z,82.76
2022-11-28T01:52:50.999Z,82.77
2022-11-28T01:55:30.193Z,82.92
2022-11-28T01:57:59.383Z,82.89
2022-11-28T02:00:28.868Z,82.94
2022-11-28T02:03:05.124Z,82.95
2022-11-28T02:05:35.105Z,82.91
2022-11-28T02:08:04.854Z,83.06
2022-11-28T02:10:52.880Z,82.90
2022-11-28T02:13:41.029Z,83.00
2022-11-28T02:16:52.779Z,82.99
2022-11-28T02:20:01.137Z,82.90
2022-11-28T02:22:42.395Z,83.26
2022-11-28T02:25:51.554Z,83.39
2022-11-28T02:29:30.946Z,83.33
2022-11-28T02:32:28.675Z,83.31
2022-11-28T02:35:08.876Z,83.29
2022-11-28T02:37:49.230Z,83.23
2022-11-28T02:40:25.554Z,83.38
2022-11-28T02:43:09.595Z,83.23
2022-11-28T02:46:03.089Z,83.30
2022-11-28T02:48:45.269Z,83.38
2022-11-28T02:51:21.630Z,83.31
2022-11-28T02:53:53.302Z,83.38
2022-11-28T02:56:29.085Z,83.36
2022-11-28T02:59:01.410Z,83.39
2022-11-28T03:01:36.048Z,83.40
2022-11-28T03:04:21.243Z,83.32
2022-11-28T03:07:02.950Z,83.51
2022-11-28T03:09:58.847Z,83.56
2022-11-28T03:12:41.632Z,83.49
2022-11-28T03:15:13.541Z,83.63
2022-11-28T03:17:55.996Z,83.68
2022-11-28T03:20:40.612Z,83.65
2022-11-28T03:23:18.499Z,83.68
2022-11-28T03:26:00.355Z,83.51
2022-11-28T03:28:40.691Z,83.65
2022-11-28T03:31:18.570Z,83.59
2022-11-28T03:33:52.587Z,83.74
2022-11-28T03:36:28.681Z,83.79
2022-11-28T03:39:06.083Z,83.83
2022-11-28T03:41:40.033Z,83.83
2022-11-28T03:44:16.546Z,83.74
2022-11-28T03:46:52.504Z,83.89
2022-11-28T03:49:30.510Z,83.95
2022-11-28T03:52:06.246Z,83.94
2022-11-28T03:54:48.543Z,84.14
2022-11-28T03:57:30.890Z,83.91
2022-11-28T04:00:04.999Z,84.02
2022-11-28T04:02:52.524Z,84.24
2022-11-28T04:05:37.072Z,84.29
2022-11-28T04:08:19.424Z,84.18
2022-11-28T04:10:57.926Z,84.24
2022-11-28T04:13:33.298Z,84.52
2022-11-28T04:16:12.199Z,84.45
2022-11-28T04:18:53.721Z,84.67
2022-11-28T04:21:32.407Z,84.68
2022-11-28T04:24:11.865Z,84.70
2022-11-28T04:26:48.251Z,84.83
2022-11-28T04:29:22.805Z,84.87
2022-11-28T04:31:55.967Z,85.08
2022-11-28T04:34:27.475Z,85.17
2022-11-28T04:37:00.043Z,84.92
2022-11-28T04:39:41.628Z,84.97
2022-11-28T04:42:20.494Z,84.93
2022-11-28T04:45:12.017Z,84.93
2022-11-28T04:47:45.661Z,84.93
2022-11-28T04:50:19.435Z,85.03
2022-11-28T04:52:57.693Z,84.80
2022-11-28T04:55:38.228Z,84.80
2022-11-28T04:58:14.744Z,84.88
2022-11-28T05:00:48.893Z,84.93
2022-11-28T05:03:30.315Z,84.89
2022-11-28T05:06:10.681Z,84.82
2022-11-28T05:08:46.067Z,84.72
2022-11-28T05:11:16.209Z,84.74
2022-11-28T05:14:11.221Z,84.75
2022-11-28T05:16:40.942Z,84.74
2022-11-28T05:19:09.991Z,84.74
2022-11-28T05:21:38.683Z,84.88
2022-11-28T05:24:11.827Z,84.70
2022-11-28T05:26:48.657Z,84.77
2022-11-28T05:29:27.145Z,84.79
2022-11-28T05:31:57.699Z,84.94
2022-11-28T05:34:35.467Z,84.73
2022-11-28T05:37:04.515Z,84.70
2022-11-28T05:39:33.425Z,84.75
2022-11-28T05:42:03.548Z,84.72
2022-11-28T05:44:34.188Z,84.75
2022-11-28T05:47:05.271Z,84.55
2022-11-28T05:49:39.530Z,84.57
2022-11-28T05:52:20.455Z,84.59
2022-11-28T05:54:49.367Z,84.72
2022-11-28T05:57:21.453Z,84.57
2022-11-28T05:59:58.525Z,84.42
2022-11-28T06:02:30.408Z,84.48
2022-11-28T06:05:04.310Z,84.36
2022-11-28T06:07:47.229Z,84.42
2022-11-28T06:10:16.782Z,84.36
2022-11-28T06:12:49.191Z,84.26
2022-11-28T06:15:18.891Z,84.39
2022-11-28T06:17:57.707Z,84.43
2022-11-28T06:20:26.894Z,84.54
2022-11-28T06:22:55.666Z,84.45
2022-11-28T06:25:24.664Z,84.53
2022-11-28T06:27:56.905Z,84.55
2022-11-28T06:30:25.777Z,84.67
2022-11-28T06:32:54.569Z,84.61
2022-11-28T06:35:23.436Z,84.48
2022-11-28T06:37:52.935Z,84.42
2022-11-28T06:40:22.374Z,84.62
2022-11-28T06:42:58.199Z,84.60
2022-11-28T06:45:27.029Z,84.63
2022-11-28T06:47:55.831Z,84.47
2022-11-28T06:50:26.844Z,84.40
2022-11-28T06:52:56.328Z,84.22
2022-11-28T06:55:25.725Z,84.23
2022-11-28T06:57:54.885Z,84.43
2022-11-28T07:00:28.558Z,84.28
2022-11-28T07:02:58.815Z,84.18
2022-11-28T07:05:31.155Z,84.13
2022-11-28T07:08:01.328Z,84.00
2022-11-28T07:10:30.595Z,83.70
2022-11-28T07:13:05.601Z,83.67
2022-11-28T07:15:38.407Z,83.63
2022-11-28T07:18:07.834Z,83.61
2022-11-28T07:20:37.334Z,83.34
2022-11-28T07:23:07.728Z,83.30
2022-11-28T07:25:38.134Z,83.45
2022-11-28T07:28:08.111Z,83.39
2022-11-28T07:30:38.478Z,83.24
2022-11-28T07:33:07.249Z,83.29
2022-11-28T07:35:37.124Z,83.41
2022-11-28T07:38:09.915Z,83.24
2022-11-28T07:40:40.001Z,83.19
2022-11-28T07:43:08.659Z,83.27
2022-11-28T07:45:59.849Z,83.15
2022-11-28T07:48:30.073Z,82.96
2022-11-28T07:50:58.838Z,83.02
2022-11-28T07:53:32.707Z,82.86
2022-11-28T07:56:05.057Z,82.78
2022-11-28T07:58:37.302Z,82.82
2022-11-28T08:01:12.583Z,82.76
2022-11-28T08:06:33.316Z,82.72
2022-11-28T08:09:07.382Z,82.78
2022-11-28T08:11:48.529Z,82.65
2022-11-28T08:14:26.116Z,82.61
2022-11-28T08:19:44.576Z,82.68
2022-11-28T08:22:13.194Z,82.68
2022-11-28T08:24:42.355Z,82.76
2022-11-28T08:27:13.725Z,82.63
2022-11-28T08:29:42.790Z,82.66
2022-11-28T08:32:13.803Z,82.55
2022-11-28T08:34:44.660Z,82.73
2022-11-28T08:37:19.265Z,82.88
2022-11-28T08:39:48.580Z,83.05
2022-11-28T08:42:34.478Z,83.05
2022-11-28T08:45:06.174Z,82.92
2022-11-28T08:47:57.826Z,82.96
2022-11-28T08:50:53.991Z,82.89
2022-11-28T08:53:29.483Z,83.13
2022-11-28T08:55:58.286Z,83.00
2022-11-28T08:58:28.516Z,82.80
2022-11-28T09:00:57.862Z,83.02
2022-11-28T09:03:36.623Z,82.89
2022-11-28T09:06:19.225Z,82.72
2022-11-28T09:08:48.956Z,82.78
2022-11-28T09:11:24.053Z,82.71
2022-11-28T09:13:56.017Z,82.99
2022-11-28T09:16:44.272Z,82.89
2022-11-28T09:19:18.631Z,82.95
2022-11-28T09:21:48.759Z,82.76
2022-11-28T09:24:20.117Z,82.76
2022-11-28T09:26:50.822Z,82.73
2022-11-28T09:29:19.974Z,82.75
2022-11-28T09:31:56.269Z,82.58
2022-11-28T09:34:28.088Z,82.82
2022-11-28T09:37:07.844Z,82.88
2022-11-28T09:39:50.669Z,82.81
2022-11-28T09:42:38.509Z,82.92
2022-11-28T09:45:13.985Z,82.82
2022-11-28T09:47:47.212Z,82.60
2022-11-28T09:50:25.328Z,82.76
2022-11-28T09:53:09.456Z,82.79
2022-11-28T09:55:54.929Z,82.77
2022-11-28T09:58:33.286Z,82.63
2022-11-28T10:01:17.650Z,82.34
2022-11-28T10:04:07.635Z,82.08
2022-11-28T10:07:00.360Z,82.11
2022-11-28T10:09:42.701Z,82.22
2022-11-28T10:12:41.208Z,82.03
2022-11-28T10:15:33.940Z,82.04
2022-11-28T10:18:29.480Z,81.65
2022-11-28T10:21:03.969Z,81.55
2022-11-28T10:23:44.431Z,81.60
2022-11-28T10:26:22.704Z,81.54
2022-11-28T10:28:57.840Z,81.57
2022-11-28T10:31:41.900Z,81.47
2022-11-28T10:34:17.526Z,81.35
2022-11-28T10:36:59.013Z,81.24
2022-11-28T10:39:35.440Z,80.97
2022-11-28T10:42:19.595Z,80.74
2022-11-28T10:45:15.119Z,80.75
2022-11-28T10:48:38.927Z,80.51
2022-11-28T10:51:32.116Z,80.55
2022-11-28T10:54:20.985Z,80.46
2022-11-28T10:57:05.863Z,80.17
2022-11-28T11:00:10.098Z,80.17
2022-11-28T11:02:48.000Z,80.34
2022-11-28T11:05:20.775Z,80.45
2022-11-28T11:07:54.593Z,80.15
2022-11-28T11:10:34.937Z,80.24
2022-11-28T11:14:19.494Z,80.11
2022-11-28T11:17:09.469Z,80.13
2022-11-28T11:19:42.620Z,80.22
2022-11-28T11:22:21.528Z,80.24
2022-11-28T11:25:12.038Z,80.34
2022-11-28T11:27:59.036Z,80.18
2022-11-28T11:30:49.610Z,80.38
2022-11-28T11:33:41.567Z,80.24
2022-11-28T11:36:33.366Z,80.02
2022-11-28T11:39:47.942Z,80.07
2022-11-28T11:42:23.603Z,80.05
2022-11-28T11:45:04.146Z,80.14
2022-11-28T11:47:45.621Z,80.16
2022-11-28T11:50:21.440Z,80.05
2022-11-28T11:53:08.044Z,80.18
2022-11-28T11:55:50.074Z,80.18
2022-11-28T11:58:24.817Z,80.28
2022-11-28T12:01:01.833Z,80.24
2022-11-28T12:03:39.334Z,80.19
2022-11-28T12:06:17.237Z,80.17
2022-11-28T12:08:52.931Z,80.14
2022-11-28T12:11:30.574Z,80.09
2022-11-28T12:14:17.828Z,80.34
2022-11-28T12:16:58.687Z,80.40
2022-11-28T12:19:43.053Z,80.25
2022-11-28T12:22:27.219Z,80.36
2022-11-28T12:25:06.896Z,80.39
2022-11-28T12:27:58.225Z,80.23
2022-11-28T12:30:44.604Z,80.33
2022-11-28T12:33:33.790Z,80.30
2022-11-28T12:36:18.147Z,80.34
2022-11-28T12:39:10.156Z,80.37
2022-11-28T12:42:18.797Z,80.32
2022-11-28T12:45:23.559Z,80.26
2022-11-28T12:48:05.525Z,80.30
2022-11-28T12:50:38.093Z,80.26
2022-11-28T12:53:42.224Z,80.48
2022-11-28T12:56:35.689Z,80.46
2022-11-28T12:59:13.897Z,80.58
2022-11-28T13:02:05.193Z,80.56
2022-11-28T13:05:14.465Z,80.71
2022-11-28T13:08:12.549Z,80.78
2022-11-28T13:10:51.737Z,80.85
2022-11-28T13:13:28.823Z,80.94
2022-11-28T13:16:11.981Z,80.77
2022-11-28T13:18:46.291Z,80.92
2022-11-28T13:21:47.712Z,80.97
2022-11-28T13:24:28.894Z,81.08
2022-11-28T13:27:12.133Z,81.11
2022-11-28T13:30:03.518Z,81.03
2022-11-28T13:32:45.623Z,80.97
2022-11-28T13:35:18.881Z,81.06
2022-11-28T13:40:54.705Z,81.08
2022-11-28T13:43:42.114Z,81.10
2022-11-28T13:46:18.387Z,81.14
2022-11-28T13:49:15.392Z,81.12
2022-11-28T13:51:58.677Z,81.19
2022-11-28T13:54:54.320Z,81.41
2022-11-28T13:57:39.086Z,81.49
2022-11-28T14:00:23.909Z,81.46
2022-11-28T14:03:00.684Z,81.47
2022-11-28T14:05:35.104Z,81.36
2022-11-28T14:08:07.172Z,81.55
2022-11-28T14:11:05.646Z,81.35
2022-11-28T14:13:56.007Z,81.47
2022-11-28T14:16:48.378Z,81.39
2022-11-28T14:19:40.229Z,81.57
2022-11-28T14:22:33.637Z,81.57
2022-11-28T14:25:15.134Z,81.66
2022-11-28T14:27:54.845Z,81.64
2022-11-28T14:30:32.907Z,81.72
2022-11-28T14:33:06.682Z,81.89
2022-11-28T14:36:23.450Z,81.87
2022-11-28T14:39:33.155Z,81.76
2022-11-28T14:45:47.242Z,81.96
2022-11-28T14:48:32.083Z,81.91
2022-11-28T14:51:06.954Z,81.95
2022-11-28T14:53:46.841Z,81.96
2022-11-28T14:56:45.542Z,81.94
2022-11-28T14:59:15.051Z,81.94
2022-11-28T15:02:01.457Z,82.15
2022-11-28T15:04:52.912Z,82.12
2022-11-28T15:07:36.744Z,82.24
2022-11-28T15:10:16.339Z,82.14
2022-11-28T15:13:01.289Z,82.22
2022-11-28T15:15:42.238Z,82.20
2022-11-28T15:18:16.400Z,82.19
2022-11-28T15:20:53.980Z,82.25
2022-11-28T15:23:36.116Z,82.38
2022-11-28T15:26:07.008Z,82.33
2022-11-28T15:28:36.215Z,82.31
2022-11-28T15:31:09.984Z,82.39
2022-11-28T15:33:41.591Z,82.36
2022-11-28T15:36:27.714Z,82.37
2022-11-28T15:38:58.211Z,82.51
2022-11-28T15:41:29.587Z,82.43
2022-11-28T15:44:06.310Z,82.58
2022-11-28T15:46:36.524Z,82.61
2022-11-28T15:49:14.117Z,82.53
2022-11-28T15:51:51.783Z,82.63
2022-11-28T15:54:43.850Z,82.65
2022-11-28T15:57:25.198Z,82.78
2022-11-28T15:59:58.169Z,82.69
2022-11-28T16:02:31.966Z,82.72
2022-11-28T16:05:10.491Z,82.80
2022-11-28T16:07:51.572Z,82.84
2022-11-28T16:10:29.203Z,82.91
2022-11-28T16:13:12.077Z,82.80
2022-11-28T16:15:49.889Z,82.74
2022-11-28T16:18:20.070Z,82.94
2022-11-28T16:20:55.594Z,82.88
2022-11-28T16:23:33.694Z,82.85
2022-11-28T16:26:06.733Z,82.93
2022-11-28T16:28:39.040Z,82.87
2022-11-28T16:31:13.807Z,82.72
2022-11-28T16:33:44.887Z,82.75
2022-11-28T16:36:24.362Z,82.89
2022-11-28T16:38:57.598Z,82.82
2022-11-28T16:41:30.671Z,82.89
2022-11-28T16:44:14.838Z,82.99
2022-11-28T16:46:54.558Z,82.93
2022-11-28T16:49:37.761Z,82.88
2022-11-28T16:52:49.163Z,82.77
2022-11-28T16:55:50.790Z,83.02
2022-11-28T16:58:24.413Z,82.95
2022-11-28T17:01:04.241Z,82.89
2022-11-28T17:03:49.885Z,82.99
2022-11-28T17:06:33.850Z,82.98
2022-11-28T17:09:03.068Z,82.79
2022-11-28T17:11:36.176Z,82.97
2022-11-28T17:14:11.707Z,82.97
2022-11-28T17:16:44.542Z,82.96
2022-11-28T17:19:13.548Z,82.89
2022-11-28T17:21:46.268Z,82.96
2022-11-28T17:24:20.438Z,82.78
2022-11-28T17:26:50.257Z,82.88
2022-11-28T17:29:19.086Z,82.79
2022-11-28T17:31:50.625Z,82.73
2022-11-28T17:34:21.923Z,82.77
2022-11-28T17:36:51.346Z,82.83
2022-11-28T17:39:21.629Z,82.89
2022-11-28T17:41:51.194Z,82.80
2022-11-28T17:44:24.403Z,83.01
2022-11-28T17:47:00.644Z,82.83
2022-11-28T17:49:31.934Z,82.75
2022-11-28T17:52:01.370Z,82.71
2022-11-28T17:54:31.039Z,82.73
2022-11-28T17:56:59.835Z,82.78
2022-11-28T17:59:29.379Z,82.62
2022-11-28T18:02:01.392Z,82.57
2022-11-28T18:04:45.995Z,82.53
2022-11-28T18:07:19.953Z,82.51
2022-11-28T18:09:48.937Z,82.53
2022-11-28T18:12:18.189Z,82.63
2022-11-28T18:15:11.494Z,82.63
2022-11-28T18:17:41.840Z,82.71
2022-11-28T18:20:20.097Z,82.56
2022-11-28T18:23:07.267Z,82.68
2022-11-28T18:25:45.065Z,82.68
2022-11-28T18:28:19.041Z,82.61
2022-11-28T18:30:50.216Z,82.52
2022-11-28T18:33:22.715Z,82.50
2022-11-28T18:35:54.571Z,82.69
2022-11-28T18:39:04.538Z,82.60
2022-11-28T18:41:36.692Z,82.60
2022-11-28T18:44:23.381Z,82.64
2022-11-28T18:46:52.859Z,82.53
2022-11-28T18:49:38.091Z,82.59
2022-11-28T18:55:03.378Z,82.75
2022-11-28T18:57:49.185Z,82.58
2022-11-28T19:00:19.510Z,82.73
2022-11-28T19:03:00.458Z,82.50
2022-11-28T19:05:37.805Z,82.60
2022-11-28T19:08:08.810Z,82.73
2022-11-28T19:10:42.387Z,82.62
2022-11-28T19:13:32.175Z,82.58
2022-11-28T19:16:11.402Z,82.57
2022-11-28T19:18:42.042Z,82.49
2022-11-28T19:21:15.687Z,82.59
2022-11-28T19:23:47.521Z,82.54
2022-11-28T19:26:23.139Z,82.61
2022-11-28T19:28:53.029Z,82.60
2022-11-28T19:31:28.414Z,82.55
2022-11-28T19:34:02.462Z,82.62
2022-11-28T19:36:39.516Z,82.60
2022-11-28T19:39:10.088Z,82.50
2022-11-28T19:41:42.450Z,82.36
2022-11-28T19:44:16.771Z,82.40
2022-11-28T19:46:47.899Z,82.38
2022-11-28T19:49:26.283Z,82.59
2022-11-28T19:52:05.978Z,82.56
2022-11-28T19:54:39.710Z,82.65
2022-11-28T19:57:11.542Z,82.67
2022-11-28T20:00:01.603Z,82.70
2022-11-28T20:06:05.820Z,82.61
2022-11-28T20:08:37.295Z,82.51
2022-11-28T20:11:27.000Z,82.48
2022-11-28T20:13:58.350Z,82.68
2022-11-28T20:16:29.959Z,82.72
2022-11-28T20:19:01.579Z,82.62
2022-11-28T20:21:32.015Z,82.72
2022-11-28T20:24:07.315Z,82.86
2022-11-28T20:26:41.149Z,82.74
2022-11-28T20:29:18.503Z,82.89
2022-11-28T20:32:04.266Z,82.87
2022-11-28T20:34:40.964Z,82.86
2022-11-28T20:40:04.815Z,83.13
2022-11-28T20:42:40.029Z,83.23
2022-11-28T20:45:12.721Z,83.25
2022-11-28T20:47:49.509Z,83.21
2022-11-28T20:50:29.603Z,83.61
2022-11-28T20:52:58.682Z,83.54
2022-11-28T20:55:30.780Z,83.55
2022-11-28T20:58:05.304Z,83.50
2022-11-28T21:00:50.794Z,83.62
2022-11-28T21:03:23.023Z,83.45
2022-11-28T21:06:01.831Z,83.64
2022-11-28T21:08:31.573Z,83.59
2022-11-28T21:11:06.928Z,83.68
2022-11-28T21:13:37.327Z,83.66
2022-11-28T21:16:09.236Z,83.53
2022-11-28T21:18:39.824Z,83.53
2022-11-28T21:21:13.492Z,83.35
2022-11-28T21:23:45.141Z,83.36
2022-11-28T21:26:18.628Z,83.35
2022-11-28T21:28:53.332Z,83.36
2022-11-28T21:31:39.157Z,83.34
2022-11-28T21:34:14.609Z,83.24
2022-11-28T21:36:46.204Z,83.21
2022-11-28T21:39:21.140Z,83.09
2022-11-28T21:41:53.175Z,83.04
2022-11-28T21:44:23.659Z,83.11
2022-11-28T21:46:52.269Z,83.05
2022-11-28T21:49:22.209Z,83.13
2022-11-28T21:52:49.706Z,82.87
2022-11-28T21:55:24.761Z,82.89
2022-11-28T21:58:04.919Z,82.84
2022-11-28T22:00:52.513Z,82.92
2022-11-28T22:03:30.372Z,82.83
2022-11-28T22:06:02.691Z,82.85
2022-11-28T22:08:34.801Z,82.93
2022-11-28T22:11:11.336Z,82.89
2022-11-28T22:13:45.272Z,82.88
2022-11-28T22:16:19.324Z,82.90
2022-11-28T22:18:52.940Z,82.79
2022-11-28T22:21:56.942Z,82.87
2022-11-28T22:24:20.323Z,82.77
2022-11-28T22:27:03.407Z,82.89
2022-11-28T22:29:36.418Z,82.88
2022-11-28T22:32:10.892Z,82.75
2022-11-28T22:34:40.538Z,82.74
2022-11-28T22:37:11.809Z,82.66
2022-11-28T22:39:40.556Z,82.60
2022-11-28T22:42:10.128Z,82.77
2022-11-28T22:44:40.466Z,82.71
2022-11-28T22:47:09.538Z,82.73
2022-11-28T22:49:39.399Z,82.67
2022-11-28T22:52:09.758Z,82.63
2022-11-28T22:54:38.955Z,82.59
2022-11-28T22:57:09.084Z,82.63
2022-11-28T22:59:39.768Z,82.66
2022-11-28T23:02:10.444Z,82.51
2022-11-28T23:04:40.622Z,82.59
2022-11-28T23:07:12.398Z,82.60
2022-11-28T23:09:46.039Z,82.55
2022-11-28T23:12:19.553Z,82.57
2022-11-28T23:14:51.898Z,82.57
2022-11-28T23:17:20.630Z,82.59
2022-11-28T23:19:51.344Z,82.49
2022-11-28T23:22:28.399Z,82.34
2022-11-28T23:24:57.661Z,82.32
2022-11-28T23:27:28.046Z,82.37
2022-11-28T23:30:15.092Z,82.34
2022-11-28T23:32:46.381Z,82.40
2022-11-28T23:35:21.389Z,82.32
2022-11-28T23:38:04.801Z,82.38
2022-11-28T23:40:35.050Z,82.39
2022-11-28T23:43:11.444Z,82.57
2022-11-28T23:45:44.211Z,82.54
2022-11-28T23:48:16.325Z,82.48
2022-11-28T23:50:45.175Z,82.32
2022-11-28T23:53:17.939Z,82.38
2022-11-28T23:55:46.509Z,82.32
2022-11-28T23:58:17.018Z,82.37
